sensor_id;sensor_type;location;lat;lon;timestamp;temperature;humidity
11963;DHT22;62678;52.130;5.584;2022-11-14T00:00:13;6.30;99.90
11963;DHT22;62678;52.130;5.584;2022-11-14T00:02:40;6.30;99.90
11963;DHT22;62678;52.130;5.584;2022-11-14T00:05:08;6.30;99.90
11963;DHT22;62678;52.130;5.584;2022-11-14T00:07:36;6.20;99.90
11963;DHT22;62678;52.130;5.584;2022-11-14T00:10:03;6.30;99.90
11963;DHT22;62678;52.130;5.584;2022-11-14T00:12:30;6.20;99.90
11963;DHT22;62678;52.130;5.584;2022-11-14T00:14:57;6.20;99.90
11963;DHT22;62678;52.130;5.584;2022-11-14T00:17:24;6.20;99.90
11963;DHT22;62678;52.130;5.584;2022-11-14T00:19:50;6.20;99.90
11963;DHT22;62678;52.130;5.584;2022-11-14T00:22:17;6.10;99.90
11963;DHT22;62678;52.130;5.584;2022-11-14T00:24:45;6.10;99.90
11963;DHT22;62678;52.130;5.584;2022-11-14T00:27:13;6.10;99.90
11963;DHT22;62678;52.130;5.584;2022-11-14T00:29:40;6.10;99.90
11963;DHT22;62678;52.130;5.584;2022-11-14T00:32:07;6.10;99.90
11963;DHT22;62678;52.130;5.584;2022-11-14T00:34:33;6.00;99.90
11963;DHT22;62678;52.130;5.584;2022-11-14T00:37:01;6.00;99.90
11963;DHT22;62678;52.130;5.584;2022-11-14T00:39:27;6.00;99.90
11963;DHT22;62678;52.130;5.584;2022-11-14T00:41:56;5.90;99.90
11963;DHT22;62678;52.130;5.584;2022-11-14T00:44:22;6.00;99.90
11963;DHT22;62678;52.130;5.584;2022-11-14T00:46:49;5.90;99.90
11963;DHT22;62678;52.130;5.584;2022-11-14T00:49:16;5.80;99.90
11963;DHT22;62678;52.130;5.584;2022-11-14T00:51:43;5.90;99.90
11963;DHT22;62678;52.130;5.584;2022-11-14T00:54:10;5.90;99.90
11963;DHT22;62678;52.130;5.584;2022-11-14T00:56:37;5.90;99.90
11963;DHT22;62678;52.130;5.584;2022-11-14T00:59:05;5.80;99.90
11963;DHT22;62678;52.130;5.584;2022-11-14T01:01:32;5.80;99.90
11963;DHT22;62678;52.130;5.584;2022-11-14T01:03:59;5.70;99.90
11963;DHT22;62678;52.130;5.584;2022-11-14T01:06:26;5.70;99.90
11963;DHT22;62678;52.130;5.584;2022-11-14T01:08:52;5.60;99.90
11963;DHT22;62678;52.130;5.584;2022-11-14T01:11:20;5.60;99.90
11963;DHT22;62678;52.130;5.584;2022-11-14T01:13:47;5.60;99.90
11963;DHT22;62678;52.130;5.584;2022-11-14T01:16:16;5.60;99.90
11963;DHT22;62678;52.130;5.584;2022-11-14T01:18:43;5.50;99.90
11963;DHT22;62678;52.130;5.584;2022-11-14T01:21:12;5.50;99.90
11963;DHT22;62678;52.130;5.584;2022-11-14T01:23:39;5.50;99.90
11963;DHT22;62678;52.130;5.584;2022-11-14T01:26:08;5.50;99.90
11963;DHT22;62678;52.130;5.584;2022-11-14T01:28:35;5.50;99.90
11963;DHT22;62678;52.130;5.584;2022-11-14T01:31:09;5.50;99.90
11963;DHT22;62678;52.130;5.584;2022-11-14T01:33:38;5.50;99.90
11963;DHT22;62678;52.130;5.584;2022-11-14T01:36:06;5.40;99.90
11963;DHT22;62678;52.130;5.584;2022-11-14T01:38:33;5.40;99.90
11963;DHT22;62678;52.130;5.584;2022-11-14T01:41:01;5.40;99.90
11963;DHT22;62678;52.130;5.584;2022-11-14T01:43:30;5.40;99.90
11963;DHT22;62678;52.130;5.584;2022-11-14T01:45:59;5.40;99.90
11963;DHT22;62678;52.130;5.584;2022-11-14T01:48:31;5.40;99.90
11963;DHT22;62678;52.130;5.584;2022-11-14T01:51:09;5.30;99.90
11963;DHT22;62678;52.130;5.584;2022-11-14T01:53:39;5.30;99.90
11963;DHT22;62678;52.130;5.584;2022-11-14T01:56:07;5.30;99.90
11963;DHT22;62678;52.130;5.584;2022-11-14T01:58:36;5.30;99.90
11963;DHT22;62678;52.130;5.584;2022-11-14T02:01:04;5.30;99.90
11963;DHT22;62678;52.130;5.584;2022-11-14T02:03:33;5.30;99.90
11963;DHT22;62678;52.130;5.584;2022-11-14T02:06:03;5.20;99.90
11963;DHT22;62678;52.130;5.584;2022-11-14T02:08:30;5.20;99.90
11963;DHT22;62678;52.130;5.584;2022-11-14T02:10:58;5.20;99.90
11963;DHT22;62678;52.130;5.584;2022-11-14T02:13:25;5.10;99.90
11963;DHT22;62678;52.130;5.584;2022-11-14T02:15:51;5.10;99.90
11963;DHT22;62678;52.130;5.584;2022-11-14T02:18:18;5.10;99.90
11963;DHT22;62678;52.130;5.584;2022-11-14T02:20:46;5.10;99.90
11963;DHT22;62678;52.130;5.584;2022-11-14T02:23:13;5.00;99.90
11963;DHT22;62678;52.130;5.584;2022-11-14T02:25:42;5.00;99.90
11963;DHT22;62678;52.130;5.584;2022-11-14T02:28:09;5.00;99.90
11963;DHT22;62678;52.130;5.584;2022-11-14T02:30:36;5.00;99.90
11963;DHT22;62678;52.130;5.584;2022-11-14T02:33:03;4.90;99.90
11963;DHT22;62678;52.130;5.584;2022-11-14T02:35:30;4.90;99.90
11963;DHT22;62678;52.130;5.584;2022-11-14T02:37:58;4.90;99.90
11963;DHT22;62678;52.130;5.584;2022-11-14T02:40:24;4.90;99.90
11963;DHT22;62678;52.130;5.584;2022-11-14T02:42:51;4.90;99.90
11963;DHT22;62678;52.130;5.584;2022-11-14T02:45:18;4.80;99.90
11963;DHT22;62678;52.130;5.584;2022-11-14T02:47:45;4.80;99.90
11963;DHT22;62678;52.130;5.584;2022-11-14T02:50:13;4.80;99.90
11963;DHT22;62678;52.130;5.584;2022-11-14T02:52:40;4.80;99.90
11963;DHT22;62678;52.130;5.584;2022-11-14T02:55:08;4.70;99.90
11963;DHT22;62678;52.130;5.584;2022-11-14T02:57:35;4.80;99.90
11963;DHT22;62678;52.130;5.584;2022-11-14T03:00:03;4.70;99.90
11963;DHT22;62678;52.130;5.584;2022-11-14T03:02:30;4.70;99.90
11963;DHT22;62678;52.130;5.584;2022-11-14T03:04:56;4.70;99.90
11963;DHT22;62678;52.130;5.584;2022-11-14T03:07:23;4.60;99.90
11963;DHT22;62678;52.130;5.584;2022-11-14T03:09:50;4.60;99.90
11963;DHT22;62678;52.130;5.584;2022-11-14T03:12:18;4.60;99.90
11963;DHT22;62678;52.130;5.584;2022-11-14T03:14:46;4.60;99.90
11963;DHT22;62678;52.130;5.584;2022-11-14T03:17:12;4.60;99.90
11963;DHT22;62678;52.130;5.584;2022-11-14T03:19:39;4.60;99.90
11963;DHT22;62678;52.130;5.584;2022-11-14T03:22:06;4.60;99.90
11963;DHT22;62678;52.130;5.584;2022-11-14T03:24:33;4.60;99.90
11963;DHT22;62678;52.130;5.584;2022-11-14T03:27:00;4.60;99.90
11963;DHT22;62678;52.130;5.584;2022-11-14T03:29:28;4.60;99.90
11963;DHT22;62678;52.130;5.584;2022-11-14T03:31:55;4.50;99.90
11963;DHT22;62678;52.130;5.584;2022-11-14T03:34:21;4.50;99.90
11963;DHT22;62678;52.130;5.584;2022-11-14T03:36:48;4.50;99.90
11963;DHT22;62678;52.130;5.584;2022-11-14T03:39:15;4.50;99.90
11963;DHT22;62678;52.130;5.584;2022-11-14T03:41:42;4.50;99.90
11963;DHT22;62678;52.130;5.584;2022-11-14T03:44:09;4.40;99.90
11963;DHT22;62678;52.130;5.584;2022-11-14T03:46:37;4.40;99.90
11963;DHT22;62678;52.130;5.584;2022-11-14T03:49:04;4.40;99.90
11963;DHT22;62678;52.130;5.584;2022-11-14T03:51:31;4.50;99.90
11963;DHT22;62678;52.130;5.584;2022-11-14T03:53:57;4.50;99.90
11963;DHT22;62678;52.130;5.584;2022-11-14T03:56:24;4.40;99.90
11963;DHT22;62678;52.130;5.584;2022-11-14T03:58:51;4.50;99.90
11963;DHT22;62678;52.130;5.584;2022-11-14T04:01:18;4.50;99.90
11963;DHT22;62678;52.130;5.584;2022-11-14T04:03:46;4.50;99.90
11963;DHT22;62678;52.130;5.584;2022-11-14T04:06:13;4.50;99.90
11963;DHT22;62678;52.130;5.584;2022-11-14T04:08:39;4.50;99.90
11963;DHT22;62678;52.130;5.584;2022-11-14T04:11:07;4.50;99.90
11963;DHT22;62678;52.130;5.584;2022-11-14T04:13:33;4.50;99.90
11963;DHT22;62678;52.130;5.584;2022-11-14T04:16:00;4.50;99.90
11963;DHT22;62678;52.130;5.584;2022-11-14T04:18:27;4.50;99.90
11963;DHT22;62678;52.130;5.584;2022-11-14T04:20:55;4.50;99.90
11963;DHT22;62678;52.130;5.584;2022-11-14T04:23:22;4.40;99.90
11963;DHT22;62678;52.130;5.584;2022-11-14T04:25:49;4.40;99.90
11963;DHT22;62678;52.130;5.584;2022-11-14T04:28:16;4.40;99.90
11963;DHT22;62678;52.130;5.584;2022-11-14T04:30:42;4.40;99.90
11963;DHT22;62678;52.130;5.584;2022-11-14T04:33:10;4.40;99.90
11963;DHT22;62678;52.130;5.584;2022-11-14T04:35:37;4.40;99.90
11963;DHT22;62678;52.130;5.584;2022-11-14T04:38:05;4.40;99.90
11963;DHT22;62678;52.130;5.584;2022-11-14T04:40:32;4.40;99.90
11963;DHT22;62678;52.130;5.584;2022-11-14T04:42:59;4.50;99.90
11963;DHT22;62678;52.130;5.584;2022-11-14T04:45:26;4.40;99.90
11963;DHT22;62678;52.130;5.584;2022-11-14T04:47:52;4.30;99.90
11963;DHT22;62678;52.130;5.584;2022-11-14T04:50:19;4.30;99.90
11963;DHT22;62678;52.130;5.584;2022-11-14T04:52:46;4.20;99.90
11963;DHT22;62678;52.130;5.584;2022-11-14T04:55:17;4.30;99.90
11963;DHT22;62678;52.130;5.584;2022-11-14T04:57:44;4.30;99.90
11963;DHT22;62678;52.130;5.584;2022-11-14T05:00:12;4.20;99.90
11963;DHT22;62678;52.130;5.584;2022-11-14T05:02:39;4.20;99.90
11963;DHT22;62678;52.130;5.584;2022-11-14T05:05:06;4.20;99.90
11963;DHT22;62678;52.130;5.584;2022-11-14T05:07:33;4.20;99.90
11963;DHT22;62678;52.130;5.584;2022-11-14T05:10:00;4.20;99.90
11963;DHT22;62678;52.130;5.584;2022-11-14T05:12:28;4.20;99.90
11963;DHT22;62678;52.130;5.584;2022-11-14T05:14:55;4.20;99.90
11963;DHT22;62678;52.130;5.584;2022-11-14T05:17:22;4.10;99.90
11963;DHT22;62678;52.130;5.584;2022-11-14T05:19:48;4.00;99.90
11963;DHT22;62678;52.130;5.584;2022-11-14T05:22:15;4.10;99.90
11963;DHT22;62678;52.130;5.584;2022-11-14T05:24:42;4.00;99.90
11963;DHT22;62678;52.130;5.584;2022-11-14T05:27:09;4.00;99.90
11963;DHT22;62678;52.130;5.584;2022-11-14T05:29:37;4.00;99.90
11963;DHT22;62678;52.130;5.584;2022-11-14T05:32:04;4.10;99.90
11963;DHT22;62678;52.130;5.584;2022-11-14T05:34:31;4.00;99.90
11963;DHT22;62678;52.130;5.584;2022-11-14T05:36:57;4.00;99.90
11963;DHT22;62678;52.130;5.584;2022-11-14T05:39:24;3.90;99.90
11963;DHT22;62678;52.130;5.584;2022-11-14T05:41:51;3.90;99.90
11963;DHT22;62678;52.130;5.584;2022-11-14T05:44:18;4.00;99.90
11963;DHT22;62678;52.130;5.584;2022-11-14T05:46:46;4.00;99.90
11963;DHT22;62678;52.130;5.584;2022-11-14T05:49:12;3.90;99.90
11963;DHT22;62678;52.130;5.584;2022-11-14T05:51:39;4.00;99.90
11963;DHT22;62678;52.130;5.584;2022-11-14T05:54:06;3.90;99.90
11963;DHT22;62678;52.130;5.584;2022-11-14T05:56:33;3.90;99.90
11963;DHT22;62678;52.130;5.584;2022-11-14T05:59:00;3.90;99.90
11963;DHT22;62678;52.130;5.584;2022-11-14T06:01:26;3.90;99.90
11963;DHT22;62678;52.130;5.584;2022-11-14T06:03:55;3.90;99.90
11963;DHT22;62678;52.130;5.584;2022-11-14T06:06:22;3.80;99.90
11963;DHT22;62678;52.130;5.584;2022-11-14T06:08:48;3.80;99.90
11963;DHT22;62678;52.130;5.584;2022-11-14T06:11:16;3.80;99.90
11963;DHT22;62678;52.130;5.584;2022-11-14T06:13:44;3.70;99.90
11963;DHT22;62678;52.130;5.584;2022-11-14T06:16:12;3.70;99.90
11963;DHT22;62678;52.130;5.584;2022-11-14T06:18:40;3.80;99.90
11963;DHT22;62678;52.130;5.584;2022-11-14T06:21:10;3.80;99.90
11963;DHT22;62678;52.130;5.584;2022-11-14T06:23:38;3.70;99.90
11963;DHT22;62678;52.130;5.584;2022-11-14T06:26:06;3.70;99.90
11963;DHT22;62678;52.130;5.584;2022-11-14T06:28:33;3.60;99.90
11963;DHT22;62678;52.130;5.584;2022-11-14T06:31:02;3.60;99.90
11963;DHT22;62678;52.130;5.584;2022-11-14T06:33:33;3.60;99.90
11963;DHT22;62678;52.130;5.584;2022-11-14T06:36:02;3.60;99.90
11963;DHT22;62678;52.130;5.584;2022-11-14T06:38:31;3.60;99.90
11963;DHT22;62678;52.130;5.584;2022-11-14T06:41:02;3.60;99.90
11963;DHT22;62678;52.130;5.584;2022-11-14T06:43:31;3.70;99.90
11963;DHT22;62678;52.130;5.584;2022-11-14T06:45:58;3.60;99.90
11963;DHT22;62678;52.130;5.584;2022-11-14T06:48:25;3.60;99.90
11963;DHT22;62678;52.130;5.584;2022-11-14T06:50:52;3.60;99.90
11963;DHT22;62678;52.130;5.584;2022-11-14T06:53:20;3.60;99.90
11963;DHT22;62678;52.130;5.584;2022-11-14T06:55:54;3.60;99.90
11963;DHT22;62678;52.130;5.584;2022-11-14T06:58:24;3.60;99.90
11963;DHT22;62678;52.130;5.584;2022-11-14T07:00:51;3.60;99.90
11963;DHT22;62678;52.130;5.584;2022-11-14T07:03:17;3.70;99.90
11963;DHT22;62678;52.130;5.584;2022-11-14T07:05:44;3.60;99.90
11963;DHT22;62678;52.130;5.584;2022-11-14T07:08:11;3.70;99.90
11963;DHT22;62678;52.130;5.584;2022-11-14T07:10:38;3.80;99.90
11963;DHT22;62678;52.130;5.584;2022-11-14T07:13:07;3.70;99.90
11963;DHT22;62678;52.130;5.584;2022-11-14T07:15:35;3.80;99.90
11963;DHT22;62678;52.130;5.584;2022-11-14T07:18:02;3.70;99.90
11963;DHT22;62678;52.130;5.584;2022-11-14T07:20:29;3.80;99.90
11963;DHT22;62678;52.130;5.584;2022-11-14T07:22:56;3.80;99.90
11963;DHT22;62678;52.130;5.584;2022-11-14T07:25:23;3.90;99.90
11963;DHT22;62678;52.130;5.584;2022-11-14T07:27:49;3.80;99.90
11963;DHT22;62678;52.130;5.584;2022-11-14T07:30:17;3.90;99.90
11963;DHT22;62678;52.130;5.584;2022-11-14T07:32:45;3.90;99.90
11963;DHT22;62678;52.130;5.584;2022-11-14T07:35:11;3.90;99.90
11963;DHT22;62678;52.130;5.584;2022-11-14T07:37:38;3.90;99.90
11963;DHT22;62678;52.130;5.584;2022-11-14T07:40:06;4.00;99.90
11963;DHT22;62678;52.130;5.584;2022-11-14T07:42:33;3.90;99.90
11963;DHT22;62678;52.130;5.584;2022-11-14T07:45:00;4.00;99.90
11963;DHT22;62678;52.130;5.584;2022-11-14T07:47:29;4.00;99.90
11963;DHT22;62678;52.130;5.584;2022-11-14T07:49:59;4.00;99.90
11963;DHT22;62678;52.130;5.584;2022-11-14T07:52:25;4.10;99.90
11963;DHT22;62678;52.130;5.584;2022-11-14T07:54:52;4.10;99.90
11963;DHT22;62678;52.130;5.584;2022-11-14T07:57:19;4.10;99.90
11963;DHT22;62678;52.130;5.584;2022-11-14T07:59:46;4.20;99.90
11963;DHT22;62678;52.130;5.584;2022-11-14T08:02:14;4.20;99.90
11963;DHT22;62678;52.130;5.584;2022-11-14T08:04:42;4.20;99.90
11963;DHT22;62678;52.130;5.584;2022-11-14T08:07:09;4.10;99.90
11963;DHT22;62678;52.130;5.584;2022-11-14T08:09:36;4.20;99.90
11963;DHT22;62678;52.130;5.584;2022-11-14T08:12:04;4.20;99.90
11963;DHT22;62678;52.130;5.584;2022-11-14T08:14:31;4.20;99.90
11963;DHT22;62678;52.130;5.584;2022-11-14T08:16:58;4.30;99.90
11963;DHT22;62678;52.130;5.584;2022-11-14T08:19:25;4.30;99.90
11963;DHT22;62678;52.130;5.584;2022-11-14T08:21:53;4.40;99.90
11963;DHT22;62678;52.130;5.584;2022-11-14T08:24:20;4.40;99.90
11963;DHT22;62678;52.130;5.584;2022-11-14T08:26:46;4.40;99.90
11963;DHT22;62678;52.130;5.584;2022-11-14T08:29:13;4.40;99.90
11963;DHT22;62678;52.130;5.584;2022-11-14T08:31:40;4.50;99.90
11963;DHT22;62678;52.130;5.584;2022-11-14T08:34:06;4.60;99.90
11963;DHT22;62678;52.130;5.584;2022-11-14T08:36:34;4.60;99.90
11963;DHT22;62678;52.130;5.584;2022-11-14T08:39:02;4.70;99.90
11963;DHT22;62678;52.130;5.584;2022-11-14T08:41:29;4.70;99.90
11963;DHT22;62678;52.130;5.584;2022-11-14T08:43:56;4.80;99.90
11963;DHT22;62678;52.130;5.584;2022-11-14T08:46:23;4.90;99.90
11963;DHT22;62678;52.130;5.584;2022-11-14T08:48:49;4.90;99.90
11963;DHT22;62678;52.130;5.584;2022-11-14T08:51:16;5.00;99.90
11963;DHT22;62678;52.130;5.584;2022-11-14T08:53:43;5.00;99.90
11963;DHT22;62678;52.130;5.584;2022-11-14T08:56:12;5.20;99.90
11963;DHT22;62678;52.130;5.584;2022-11-14T08:58:39;5.30;99.90
11963;DHT22;62678;52.130;5.584;2022-11-14T09:01:06;5.40;99.90
11963;DHT22;62678;52.130;5.584;2022-11-14T09:03:33;5.50;99.90
11963;DHT22;62678;52.130;5.584;2022-11-14T09:06:01;5.40;99.90
11963;DHT22;62678;52.130;5.584;2022-11-14T09:08:28;5.50;99.90
11963;DHT22;62678;52.130;5.584;2022-11-14T09:10:58;5.60;99.90
11963;DHT22;62678;52.130;5.584;2022-11-14T09:13:26;5.70;99.90
11963;DHT22;62678;52.130;5.584;2022-11-14T09:15:53;5.70;99.90
11963;DHT22;62678;52.130;5.584;2022-11-14T09:18:20;5.80;99.90
11963;DHT22;62678;52.130;5.584;2022-11-14T09:20:46;5.90;99.90
11963;DHT22;62678;52.130;5.584;2022-11-14T09:23:15;5.90;99.90
11963;DHT22;62678;52.130;5.584;2022-11-14T09:25:42;6.00;99.90
11963;DHT22;62678;52.130;5.584;2022-11-14T09:28:09;6.20;99.90
11963;DHT22;62678;52.130;5.584;2022-11-14T09:30:37;6.20;99.90
11963;DHT22;62678;52.130;5.584;2022-11-14T09:33:05;6.20;99.90
11963;DHT22;62678;52.130;5.584;2022-11-14T09:35:33;6.40;99.90
11963;DHT22;62678;52.130;5.584;2022-11-14T09:38:01;6.50;99.90
11963;DHT22;62678;52.130;5.584;2022-11-14T09:40:28;6.60;99.90
11963;DHT22;62678;52.130;5.584;2022-11-14T09:43:13;6.70;99.90
11963;DHT22;62678;52.130;5.584;2022-11-14T09:45:47;6.80;99.90
11963;DHT22;62678;52.130;5.584;2022-11-14T09:48:18;6.80;99.90
11963;DHT22;62678;52.130;5.584;2022-11-14T09:50:50;7.00;99.90
11963;DHT22;62678;52.130;5.584;2022-11-14T09:53:24;7.10;99.90
11963;DHT22;62678;52.130;5.584;2022-11-14T09:55:53;7.20;99.90
11963;DHT22;62678;52.130;5.584;2022-11-14T09:58:20;7.30;99.90
11963;DHT22;62678;52.130;5.584;2022-11-14T10:00:52;7.40;99.90
11963;DHT22;62678;52.130;5.584;2022-11-14T10:03:25;7.60;99.90
11963;DHT22;62678;52.130;5.584;2022-11-14T10:06:09;7.80;99.90
11963;DHT22;62678;52.130;5.584;2022-11-14T10:08:49;7.90;99.90
11963;DHT22;62678;52.130;5.584;2022-11-14T10:11:21;8.00;99.90
11963;DHT22;62678;52.130;5.584;2022-11-14T10:14:02;8.10;99.90
11963;DHT22;62678;52.130;5.584;2022-11-14T10:16:38;8.10;99.90
11963;DHT22;62678;52.130;5.584;2022-11-14T10:19:15;8.10;99.90
11963;DHT22;62678;52.130;5.584;2022-11-14T10:21:52;8.20;99.90
11963;DHT22;62678;52.130;5.584;2022-11-14T10:24:40;8.30;99.90
11963;DHT22;62678;52.130;5.584;2022-11-14T10:27:17;8.40;99.90
11963;DHT22;62678;52.130;5.584;2022-11-14T10:30:06;8.50;99.90
11963;DHT22;62678;52.130;5.584;2022-11-14T10:32:58;8.50;99.90
11963;DHT22;62678;52.130;5.584;2022-11-14T10:35:34;8.70;99.90
11963;DHT22;62678;52.130;5.584;2022-11-14T10:38:06;8.70;99.90
11963;DHT22;62678;52.130;5.584;2022-11-14T10:40:38;8.70;99.90
11963;DHT22;62678;52.130;5.584;2022-11-14T10:43:21;8.80;99.90
11963;DHT22;62678;52.130;5.584;2022-11-14T10:45:52;8.80;99.90
11963;DHT22;62678;52.130;5.584;2022-11-14T10:48:29;8.80;99.90
11963;DHT22;62678;52.130;5.584;2022-11-14T10:50:58;8.90;99.90
11963;DHT22;62678;52.130;5.584;2022-11-14T10:53:31;9.00;99.90
11963;DHT22;62678;52.130;5.584;2022-11-14T10:56:01;9.00;99.90
11963;DHT22;62678;52.130;5.584;2022-11-14T10:58:28;9.10;99.90
11963;DHT22;62678;52.130;5.584;2022-11-14T11:00:55;9.10;99.90
11963;DHT22;62678;52.130;5.584;2022-11-14T11:03:39;9.10;99.90
11963;DHT22;62678;52.130;5.584;2022-11-14T11:06:23;9.10;99.90
11963;DHT22;62678;52.130;5.584;2022-11-14T11:08:50;9.30;99.90
11963;DHT22;62678;52.130;5.584;2022-11-14T11:11:37;9.30;99.90
11963;DHT22;62678;52.130;5.584;2022-11-14T11:14:04;9.30;99.90
11963;DHT22;62678;52.130;5.584;2022-11-14T11:16:30;9.40;99.90
11963;DHT22;62678;52.130;5.584;2022-11-14T11:21:53;9.40;99.90
11963;DHT22;62678;52.130;5.584;2022-11-14T11:24:30;9.40;99.90
11963;DHT22;62678;52.130;5.584;2022-11-14T11:27:19;9.40;99.90
11963;DHT22;62678;52.130;5.584;2022-11-14T11:29:49;9.50;99.90
11963;DHT22;62678;52.130;5.584;2022-11-14T11:32:26;9.50;99.90
11963;DHT22;62678;52.130;5.584;2022-11-14T11:34:54;9.60;99.90
11963;DHT22;62678;52.130;5.584;2022-11-14T11:37:25;9.60;99.90
11963;DHT22;62678;52.130;5.584;2022-11-14T11:39:54;9.70;99.90
11963;DHT22;62678;52.130;5.584;2022-11-14T11:42:25;9.60;99.90
11963;DHT22;62678;52.130;5.584;2022-11-14T11:44:57;9.60;99.90
11963;DHT22;62678;52.130;5.584;2022-11-14T11:47:24;9.80;99.90
11963;DHT22;62678;52.130;5.584;2022-11-14T11:49:52;9.80;99.90
11963;DHT22;62678;52.130;5.584;2022-11-14T11:52:29;9.80;99.90
11963;DHT22;62678;52.130;5.584;2022-11-14T11:55:01;9.80;99.90
11963;DHT22;62678;52.130;5.584;2022-11-14T11:57:34;9.70;99.90
11963;DHT22;62678;52.130;5.584;2022-11-14T12:00:06;9.70;99.90
11963;DHT22;62678;52.130;5.584;2022-11-14T12:02:35;9.80;99.90
11963;DHT22;62678;52.130;5.584;2022-11-14T12:05:13;9.80;99.90
11963;DHT22;62678;52.130;5.584;2022-11-14T12:07:47;9.90;99.90
11963;DHT22;62678;52.130;5.584;2022-11-14T12:10:19;9.90;99.90
11963;DHT22;62678;52.130;5.584;2022-11-14T12:15:56;9.90;99.90
11963;DHT22;62678;52.130;5.584;2022-11-14T12:18:49;9.80;99.90
11963;DHT22;62678;52.130;5.584;2022-11-14T12:21:36;10.10;99.90
11963;DHT22;62678;52.130;5.584;2022-11-14T12:24:27;10.00;99.90
11963;DHT22;62678;52.130;5.584;2022-11-14T12:27:11;10.00;99.90
11963;DHT22;62678;52.130;5.584;2022-11-14T12:29:59;9.80;99.90
11963;DHT22;62678;52.130;5.584;2022-11-14T12:32:32;9.90;99.90
11963;DHT22;62678;52.130;5.584;2022-11-14T12:35:04;9.80;99.90
11963;DHT22;62678;52.130;5.584;2022-11-14T12:37:34;9.90;99.90
11963;DHT22;62678;52.130;5.584;2022-11-14T12:40:04;9.80;99.90
11963;DHT22;62678;52.130;5.584;2022-11-14T12:42:32;9.80;99.90
11963;DHT22;62678;52.130;5.584;2022-11-14T12:44:59;9.90;99.90
11963;DHT22;62678;52.130;5.584;2022-11-14T12:47:27;9.70;99.90
11963;DHT22;62678;52.130;5.584;2022-11-14T12:50:03;9.60;99.90
11963;DHT22;62678;52.130;5.584;2022-11-14T12:52:49;9.50;99.90
11963;DHT22;62678;52.130;5.584;2022-11-14T12:55:54;9.60;99.90
11963;DHT22;62678;52.130;5.584;2022-11-14T12:58:49;9.30;99.90
11963;DHT22;62678;52.130;5.584;2022-11-14T13:01:26;9.20;99.90
11963;DHT22;62678;52.130;5.584;2022-11-14T13:09:52;9.10;99.90
11963;DHT22;62678;52.130;5.584;2022-11-14T13:12:31;9.10;99.90
11963;DHT22;62678;52.130;5.584;2022-11-14T13:15:26;9.10;99.90
11963;DHT22;62678;52.130;5.584;2022-11-14T13:18:22;9.10;99.90
11963;DHT22;62678;52.130;5.584;2022-11-14T13:21:26;9.00;99.90
11963;DHT22;62678;52.130;5.584;2022-11-14T13:24:13;9.10;99.90
11963;DHT22;62678;52.130;5.584;2022-11-14T13:26:48;9.00;99.90
11963;DHT22;62678;52.130;5.584;2022-11-14T13:32:53;9.10;99.90
11963;DHT22;62678;52.130;5.584;2022-11-14T13:35:29;9.10;99.90
11963;DHT22;62678;52.130;5.584;2022-11-14T13:41:02;9.00;99.90
11963;DHT22;62678;52.130;5.584;2022-11-14T13:43:44;9.00;99.90
11963;DHT22;62678;52.130;5.584;2022-11-14T13:46:22;9.00;99.90
11963;DHT22;62678;52.130;5.584;2022-11-14T13:49:08;9.00;99.90
11963;DHT22;62678;52.130;5.584;2022-11-14T13:51:37;8.90;99.90
11963;DHT22;62678;52.130;5.584;2022-11-14T13:54:10;8.90;99.90
11963;DHT22;62678;52.130;5.584;2022-11-14T13:56:43;8.90;99.90
11963;DHT22;62678;52.130;5.584;2022-11-14T14:02:24;9.10;99.90
11963;DHT22;62678;52.130;5.584;2022-11-14T14:05:03;9.20;99.90
11963;DHT22;62678;52.130;5.584;2022-11-14T14:07:48;9.00;99.90
11963;DHT22;62678;52.130;5.584;2022-11-14T14:10:24;9.00;99.90
11963;DHT22;62678;52.130;5.584;2022-11-14T14:13:03;9.10;99.90
11963;DHT22;62678;52.130;5.584;2022-11-14T14:15:37;8.90;99.90
11963;DHT22;62678;52.130;5.584;2022-11-14T14:18:18;8.80;99.90
11963;DHT22;62678;52.130;5.584;2022-11-14T14:20:55;8.80;99.90
11963;DHT22;62678;52.130;5.584;2022-11-14T14:23:33;8.80;99.90
11963;DHT22;62678;52.130;5.584;2022-11-14T14:26:06;8.80;99.90
11963;DHT22;62678;52.130;5.584;2022-11-14T14:28:47;8.70;99.90
11963;DHT22;62678;52.130;5.584;2022-11-14T14:31:18;8.70;99.90
11963;DHT22;62678;52.130;5.584;2022-11-14T14:33:48;8.70;99.90
11963;DHT22;62678;52.130;5.584;2022-11-14T14:36:19;8.70;99.90
11963;DHT22;62678;52.130;5.584;2022-11-14T14:38:46;8.70;99.90
11963;DHT22;62678;52.130;5.584;2022-11-14T14:41:15;8.70;99.90
11963;DHT22;62678;52.130;5.584;2022-11-14T14:43:49;8.70;99.90
11963;DHT22;62678;52.130;5.584;2022-11-14T14:46:26;8.70;99.90
11963;DHT22;62678;52.130;5.584;2022-11-14T14:48:54;8.70;99.90
11963;DHT22;62678;52.130;5.584;2022-11-14T14:51:31;8.80;99.90
11963;DHT22;62678;52.130;5.584;2022-11-14T14:53:59;8.80;99.90
11963;DHT22;62678;52.130;5.584;2022-11-14T14:56:26;8.80;99.90
11963;DHT22;62678;52.130;5.584;2022-11-14T14:58:53;8.70;99.90
11963;DHT22;62678;52.130;5.584;2022-11-14T15:01:22;8.80;99.90
11963;DHT22;62678;52.130;5.584;2022-11-14T15:03:53;8.70;99.90
11963;DHT22;62678;52.130;5.584;2022-11-14T15:06:25;8.70;99.90
11963;DHT22;62678;52.130;5.584;2022-11-14T15:08:56;8.80;99.90
11963;DHT22;62678;52.130;5.584;2022-11-14T15:11:23;8.90;99.90
11963;DHT22;62678;52.130;5.584;2022-11-14T15:13:54;8.90;99.90
11963;DHT22;62678;52.130;5.584;2022-11-14T15:16:22;8.90;99.90
11963;DHT22;62678;52.130;5.584;2022-11-14T15:18:51;8.90;99.90
11963;DHT22;62678;52.130;5.584;2022-11-14T15:21:24;8.90;99.90
11963;DHT22;62678;52.130;5.584;2022-11-14T15:24:01;8.80;99.90
11963;DHT22;62678;52.130;5.584;2022-11-14T15:26:29;8.70;99.90
11963;DHT22;62678;52.130;5.584;2022-11-14T15:29:10;8.70;99.90
11963;DHT22;62678;52.130;5.584;2022-11-14T15:31:45;8.70;99.90
11963;DHT22;62678;52.130;5.584;2022-11-14T15:34:25;8.60;99.90
11963;DHT22;62678;52.130;5.584;2022-11-14T15:37:19;8.60;99.90
11963;DHT22;62678;52.130;5.584;2022-11-14T15:39:48;8.50;99.90
11963;DHT22;62678;52.130;5.584;2022-11-14T15:42:18;8.60;99.90
11963;DHT22;62678;52.130;5.584;2022-11-14T15:44:45;8.60;99.90
11963;DHT22;62678;52.130;5.584;2022-11-14T15:47:18;8.60;99.90
11963;DHT22;62678;52.130;5.584;2022-11-14T15:49:57;8.50;99.90
11963;DHT22;62678;52.130;5.584;2022-11-14T15:52:28;8.50;99.90
11963;DHT22;62678;52.130;5.584;2022-11-14T15:54:57;8.60;99.90
11963;DHT22;62678;52.130;5.584;2022-11-14T15:57:24;8.60;99.90
11963;DHT22;62678;52.130;5.584;2022-11-14T15:59:50;8.60;99.90
11963;DHT22;62678;52.130;5.584;2022-11-14T16:02:20;8.60;99.90
11963;DHT22;62678;52.130;5.584;2022-11-14T16:04:49;8.60;99.90
11963;DHT22;62678;52.130;5.584;2022-11-14T16:07:16;8.60;99.90
11963;DHT22;62678;52.130;5.584;2022-11-14T16:09:44;8.60;99.90
11963;DHT22;62678;52.130;5.584;2022-11-14T16:12:12;8.60;99.90
11963;DHT22;62678;52.130;5.584;2022-11-14T16:14:39;8.40;99.90
11963;DHT22;62678;52.130;5.584;2022-11-14T16:17:11;8.40;99.90
11963;DHT22;62678;52.130;5.584;2022-11-14T16:19:37;8.30;99.90
11963;DHT22;62678;52.130;5.584;2022-11-14T16:22:05;8.10;99.90
11963;DHT22;62678;52.130;5.584;2022-11-14T16:24:31;8.00;99.90